createdAt,value
2022-11-17T00:02:17.905Z,1.52
2022-11-17T00:04:46.686Z,1.30
2022-11-17T00:07:14.983Z,1.27
2022-11-17T00:09:44.688Z,1.30
2022-11-17T00:12:33.216Z,0.95
2022-11-17T00:15:04.052Z,1.00
2022-11-17T00:17:36.627Z,1.27
2022-11-17T00:20:22.817Z,1.52
2022-11-17T00:22:53.428Z,1.90
2022-11-17T00:25:23.233Z,1.38
2022-11-17T00:27:51.420Z,2.00
2022-11-17T00:30:33.694Z,2.10
2022-11-17T00:33:20.423Z,2.38
2022-11-17T00:35:54.135Z,2.20
2022-11-17T00:38:22.491Z,2.50
2022-11-17T00:40:52.101Z,1.90
2022-11-17T00:43:20.435Z,1.80
2022-11-17T00:45:48.922Z,2.10
2022-11-17T00:48:17.726Z,2.67
2022-11-17T00:50:46.203Z,2.22
2022-11-17T00:53:14.592Z,2.47
2022-11-17T00:55:46.768Z,2.25
2022-11-17T00:58:16.968Z,2.10
2022-11-17T01:00:45.802Z,2.00
2022-11-17T01:03:14.049Z,2.53
2022-11-17T01:05:42.551Z,2.40
2022-11-17T01:08:10.893Z,2.78
2022-11-17T01:10:39.157Z,2.40
2022-11-17T01:13:07.419Z,2.38
2022-11-17T01:15:37.102Z,2.63
2022-11-17T01:18:05.321Z,2.92
2022-11-17T01:20:34.795Z,3.05
2022-11-17T01:23:03.144Z,2.70
2022-11-17T01:25:32.473Z,2.63
2022-11-17T01:28:00.926Z,2.70
2022-11-17T01:30:33.318Z,2.25
2022-11-17T01:33:02.994Z,2.72
2022-11-17T01:35:31.356Z,2.85
2022-11-17T01:37:59.564Z,2.13
2022-11-17T01:40:27.872Z,2.22
2022-11-17T01:42:56.176Z,2.15
2022-11-17T01:45:26.638Z,1.77
2022-11-17T01:47:57.893Z,1.52
2022-11-17T01:50:30.185Z,1.63
2022-11-17T01:53:00.635Z,1.63
2022-11-17T01:55:37.263Z,1.30
2022-11-17T01:58:10.735Z,1.60
2022-11-17T02:00:39.177Z,1.35
2022-11-17T02:03:09.864Z,1.42
2022-11-17T02:05:43.556Z,1.35
2022-11-17T02:08:14.947Z,1.20
2022-11-17T02:10:51.432Z,1.38
2022-11-17T02:13:24.900Z,1.30
2022-11-17T02:15:53.286Z,1.27
2022-11-17T02:18:21.799Z,1.35
2022-11-17T02:20:57.947Z,1.58
2022-11-17T02:23:49.744Z,1.58
2022-11-17T02:26:36.021Z,1.33
2022-11-17T02:29:07.926Z,1.20
2022-11-17T02:31:42.131Z,1.10
2022-11-17T02:34:15.718Z,1.00
2022-11-17T02:36:45.803Z,1.17
2022-11-17T02:39:16.713Z,0.90
2022-11-17T02:41:47.631Z,1.42
2022-11-17T02:44:17.847Z,0.93
2022-11-17T02:46:47.274Z,1.35
2022-11-17T02:49:19.869Z,0.85
2022-11-17T02:51:49.919Z,0.90
2022-11-17T02:54:21.417Z,1.20
2022-11-17T02:56:52.131Z,1.25
2022-11-17T02:59:25.340Z,0.75
2022-11-17T03:02:07.126Z,0.70
2022-11-17T03:04:42.287Z,0.60
2022-11-17T03:07:14.676Z,0.70
2022-11-17T03:09:48.605Z,1.00
2022-11-17T03:12:20.373Z,0.93
2022-11-17T03:15:02.185Z,1.00
2022-11-17T03:17:33.973Z,0.80
2022-11-17T03:20:07.363Z,1.00
2022-11-17T03:22:41.577Z,0.82
2022-11-17T03:25:11.961Z,0.85
2022-11-17T03:27:42.167Z,0.47
2022-11-17T03:30:12.550Z,0.88
2022-11-17T03:32:42.138Z,0.85
2022-11-17T03:35:14.011Z,0.80
2022-11-17T03:37:45.645Z,0.63
2022-11-17T03:40:15.731Z,0.65
2022-11-17T03:42:46.808Z,0.80
2022-11-17T03:45:24.608Z,0.60
2022-11-17T03:47:53.668Z,0.68
2022-11-17T03:50:24.292Z,0.93
2022-11-17T03:52:53.717Z,0.80
2022-11-17T03:55:22.851Z,0.57
2022-11-17T03:57:55.871Z,0.52
2022-11-17T04:00:25.609Z,0.73
2022-11-17T04:02:56.680Z,0.82
2022-11-17T04:05:24.915Z,0.35
2022-11-17T04:07:53.336Z,0.57
2022-11-17T04:10:22.489Z,0.40
2022-11-17T04:13:08.636Z,0.40
2022-11-17T04:15:52.319Z,0.63
2022-11-17T04:18:21.195Z,0.73
2022-11-17T04:20:51.684Z,0.60
2022-11-17T04:23:20.049Z,0.52
2022-11-17T04:26:06.580Z,0.40
2022-11-17T04:28:38.713Z,0.65
2022-11-17T04:31:09.536Z,0.40
2022-11-17T04:33:38.834Z,0.47
2022-11-17T04:36:07.815Z,0.57
2022-11-17T04:38:36.384Z,0.40
2022-11-17T04:41:23.783Z,0.40
2022-11-17T04:43:52.137Z,0.63
2022-11-17T04:46:22.252Z,0.30
2022-11-17T04:48:55.303Z,1.00
2022-11-17T04:51:24.294Z,0.55
2022-11-17T04:53:52.593Z,0.57
2022-11-17T04:56:21.243Z,0.55
2022-11-17T04:58:52.216Z,0.50
2022-11-17T05:01:27.010Z,0.40
2022-11-17T05:03:56.325Z,0.43
2022-11-17T05:06:25.572Z,0.55
2022-11-17T05:08:55.800Z,0.50
2022-11-17T05:11:47.391Z,0.32
2022-11-17T05:14:17.193Z,0.20
2022-11-17T05:17:09.497Z,0.60
2022-11-17T05:19:43.407Z,0.40
2022-11-17T05:22:32.370Z,0.60
2022-11-17T05:25:00.870Z,0.50
2022-11-17T05:27:29.409Z,0.30
2022-11-17T05:29:57.608Z,0.20
2022-11-17T05:32:27.160Z,0.60
2022-11-17T05:34:55.575Z,0.35
2022-11-17T05:37:26.105Z,0.40
2022-11-17T05:39:54.384Z,0.30
2022-11-17T05:42:25.041Z,0.50
2022-11-17T05:44:53.263Z,0.40
2022-11-17T05:47:21.504Z,0.43
2022-11-17T05:49:51.180Z,0.60
2022-11-17T05:52:21.789Z,0.32
2022-11-17T05:54:52.500Z,0.28
2022-11-17T05:57:23.351Z,0.50
2022-11-17T05:59:53.134Z,0.38
2022-11-17T06:02:23.563Z,0.65
2022-11-17T06:04:53.150Z,0.60
2022-11-17T06:07:21.851Z,0.47
2022-11-17T06:09:50.326Z,0.57
2022-11-17T06:12:21.071Z,0.85
2022-11-17T06:14:49.376Z,1.05
2022-11-17T06:17:22.515Z,1.17
2022-11-17T06:19:56.070Z,0.50
2022-11-17T06:22:24.493Z,0.75
2022-11-17T06:24:52.701Z,0.60
2022-11-17T06:27:22.106Z,1.17
2022-11-17T06:29:50.962Z,0.65
2022-11-17T06:32:19.706Z,0.73
2022-11-17T06:34:55.292Z,0.90
2022-11-17T06:37:28.247Z,1.00
2022-11-17T06:39:56.477Z,0.73
2022-11-17T06:42:49.205Z,1.00
2022-11-17T06:45:17.867Z,1.23
2022-11-17T06:47:46.065Z,0.90
2022-11-17T06:50:14.293Z,0.95
2022-11-17T06:52:48.435Z,0.70
2022-11-17T06:55:16.804Z,0.52
2022-11-17T06:57:53.153Z,0.60
2022-11-17T07:00:22.219Z,0.95
2022-11-17T07:02:50.519Z,0.90
2022-11-17T07:05:18.798Z,0.50
2022-11-17T07:07:48.687Z,0.68
2022-11-17T07:10:19.439Z,0.63
2022-11-17T07:12:47.899Z,0.63
2022-11-17T07:15:16.280Z,0.30
2022-11-17T07:17:46.932Z,0.70
2022-11-17T07:20:15.704Z,0.47
2022-11-17T07:22:43.993Z,0.68
2022-11-17T07:25:18.327Z,0.55
2022-11-17T07:27:49.458Z,0.40
2022-11-17T07:30:17.921Z,0.52
2022-11-17T07:32:51.940Z,0.50
2022-11-17T07:35:25.351Z,0.63
2022-11-17T07:38:01.303Z,0.77
2022-11-17T07:40:31.401Z,0.37
2022-11-17T07:42:59.745Z,0.47
2022-11-17T07:45:31.781Z,0.63
2022-11-17T07:48:03.735Z,0.55
2022-11-17T07:50:32.278Z,0.30
2022-11-17T07:53:02.726Z,0.50
2022-11-17T07:55:39.057Z,0.50
2022-11-17T07:58:07.233Z,0.60
2022-11-17T08:00:35.618Z,0.75
2022-11-17T08:03:04.615Z,0.98
2022-11-17T08:05:35.920Z,0.60
2022-11-17T08:08:09.383Z,1.02
2022-11-17T08:10:38.980Z,0.65
2022-11-17T08:13:07.504Z,0.80
2022-11-17T08:15:36.164Z,0.85
2022-11-17T08:18:04.927Z,0.50
2022-11-17T08:20:33.837Z,1.38
2022-11-17T08:23:04.371Z,0.90
2022-11-17T08:25:32.591Z,0.80
2022-11-17T08:28:02.150Z,0.50
2022-11-17T08:30:31.414Z,0.70
2022-11-17T08:32:59.886Z,0.90
2022-11-17T08:35:35.825Z,0.40
2022-11-17T08:38:07.795Z,0.82
2022-11-17T08:40:35.953Z,0.63
2022-11-17T08:43:05.734Z,0.90
2022-11-17T08:45:36.128Z,0.80
2022-11-17T08:48:07.413Z,0.70
2022-11-17T08:50:42.836Z,0.82
2022-11-17T08:53:15.382Z,0.40
2022-11-17T08:55:44.352Z,0.73
2022-11-17T08:58:14.242Z,0.47
2022-11-17T09:00:42.958Z,0.47
2022-11-17T09:03:16.946Z,0.55
2022-11-17T09:05:52.501Z,0.60
2022-11-17T09:08:45.131Z,0.35
2022-11-17T09:11:20.150Z,0.70
2022-11-17T09:13:50.524Z,0.82
2022-11-17T09:16:18.927Z,0.50
2022-11-17T09:18:47.163Z,0.90
2022-11-17T09:21:17.213Z,0.40
2022-11-17T09:23:52.319Z,0.70
2022-11-17T09:26:22.978Z,0.80
2022-11-17T09:28:54.874Z,0.63
2022-11-17T09:31:24.318Z,0.75
2022-11-17T09:33:52.657Z,0.52
2022-11-17T09:36:20.983Z,0.55
2022-11-17T09:38:56.201Z,0.85
2022-11-17T09:41:26.291Z,0.60
2022-11-17T09:44:00.199Z,0.60
2022-11-17T09:46:31.348Z,0.43
2022-11-17T09:49:04.706Z,0.40
2022-11-17T09:51:34.730Z,0.80
2022-11-17T09:54:05.534Z,0.85
2022-11-17T09:56:33.781Z,1.23
2022-11-17T09:59:05.297Z,0.98
2022-11-17T10:01:33.968Z,0.93
2022-11-17T10:04:02.422Z,1.02
2022-11-17T10:06:32.071Z,0.90
2022-11-17T10:09:02.989Z,0.80
2022-11-17T10:11:35.847Z,0.90
2022-11-17T10:14:11.907Z,1.17
2022-11-17T10:16:42.974Z,0.63
2022-11-17T10:19:19.099Z,0.90
2022-11-17T10:21:48.891Z,0.90
2022-11-17T10:24:34.605Z,0.90
2022-11-17T10:27:07.712Z,1.27
2022-11-17T10:29:37.582Z,0.60
2022-11-17T10:32:17.983Z,1.00
2022-11-17T10:34:48.723Z,1.00
2022-11-17T10:37:28.579Z,1.42
2022-11-17T10:40:08.836Z,1.02
2022-11-17T10:42:37.464Z,1.00
2022-11-17T10:45:07.897Z,1.25
2022-11-17T10:47:39.463Z,1.35
2022-11-17T10:50:14.169Z,1.20
2022-11-17T10:52:44.937Z,0.98
2022-11-17T10:55:20.218Z,0.50
2022-11-17T10:57:50.879Z,0.50
2022-11-17T11:00:25.862Z,1.13
2022-11-17T11:03:05.233Z,0.60
2022-11-17T11:05:35.791Z,0.70
2022-11-17T11:08:18.649Z,0.63
2022-11-17T11:10:48.937Z,0.50
2022-11-17T11:13:21.777Z,0.60
2022-11-17T11:15:51.562Z,0.90
2022-11-17T11:18:22.661Z,0.88
2022-11-17T11:20:55.995Z,0.73
2022-11-17T11:23:30.492Z,0.65
2022-11-17T11:26:01.559Z,0.80
2022-11-17T11:28:47.034Z,0.75
2022-11-17T11:31:24.665Z,0.98
2022-11-17T11:33:55.599Z,0.43
2022-11-17T11:36:28.132Z,0.80
2022-11-17T11:39:03.894Z,0.80
2022-11-17T11:41:43.799Z,0.70
2022-11-17T11:44:21.983Z,1.17
2022-11-17T11:46:58.035Z,1.17
2022-11-17T11:49:32.172Z,0.70
2022-11-17T11:52:05.044Z,1.00
2022-11-17T11:54:40.136Z,0.70
2022-11-17T11:57:13.772Z,1.17
2022-11-17T11:59:48.578Z,1.23
2022-11-17T12:02:25.671Z,0.80
2022-11-17T12:05:02.238Z,1.00
2022-11-17T12:07:44.179Z,0.80
2022-11-17T12:10:14.884Z,1.20
2022-11-17T12:12:46.127Z,1.30
2022-11-17T12:15:34.711Z,0.80
2022-11-17T12:18:05.799Z,0.82
2022-11-17T12:20:49.022Z,1.10
2022-11-17T12:23:21.363Z,1.65
2022-11-17T12:25:54.610Z,0.68
2022-11-17T12:28:32.993Z,0.60
2022-11-17T12:31:10.152Z,1.05
2022-11-17T12:33:57.784Z,1.25
2022-11-17T12:36:31.683Z,1.00
2022-11-17T12:39:02.814Z,0.98
2022-11-17T12:41:49.715Z,0.70
2022-11-17T12:44:44.387Z,0.90
2022-11-17T12:47:17.594Z,0.65
2022-11-17T12:49:49.411Z,0.80
2022-11-17T12:52:22.843Z,0.85
2022-11-17T12:54:56.258Z,0.73
2022-11-17T12:57:27.047Z,0.65
2022-11-17T13:00:05.408Z,0.77
2022-11-17T13:02:58.542Z,0.73
2022-11-17T13:05:28.533Z,0.50
2022-11-17T13:08:11.635Z,0.80
2022-11-17T13:10:40.146Z,0.60
2022-11-17T13:13:14.346Z,0.60
2022-11-17T13:15:44.189Z,0.80
2022-11-17T13:18:16.096Z,0.82
2022-11-17T13:20:51.823Z,0.65
2022-11-17T13:23:23.335Z,0.80
2022-11-17T13:25:54.787Z,0.70
2022-11-17T13:28:27.707Z,0.80
2022-11-17T13:30:56.140Z,0.77
2022-11-17T13:33:25.605Z,0.70
2022-11-17T13:36:09.146Z,0.75
2022-11-17T13:38:38.975Z,0.70
2022-11-17T13:41:07.614Z,0.40
2022-11-17T13:43:40.999Z,0.80
2022-11-17T13:46:09.983Z,0.50
2022-11-17T13:48:39.162Z,0.60
2022-11-17T13:51:17.913Z,0.80
2022-11-17T13:53:48.774Z,0.60
2022-11-17T13:56:27.831Z,0.80
2022-11-17T13:58:56.823Z,1.05
2022-11-17T14:01:26.466Z,0.43
2022-11-17T14:03:57.391Z,0.80
2022-11-17T14:06:26.065Z,0.73
2022-11-17T14:09:05.878Z,0.93
2022-11-17T14:11:34.287Z,0.50
2022-11-17T14:14:02.709Z,0.60
2022-11-17T14:16:40.590Z,0.70
2022-11-17T14:19:23.843Z,0.40
2022-11-17T14:22:06.140Z,0.57
2022-11-17T14:24:36.672Z,0.60
2022-11-17T14:27:05.230Z,0.60
2022-11-17T14:29:33.748Z,0.90
2022-11-17T14:32:02.260Z,0.80
2022-11-17T14:34:30.470Z,0.63
2022-11-17T14:36:59.022Z,0.80
2022-11-17T14:39:29.871Z,0.60
2022-11-17T14:42:00.141Z,0.82
2022-11-17T14:44:28.593Z,1.00
2022-11-17T14:46:56.909Z,0.40
2022-11-17T14:49:27.739Z,0.73
2022-11-17T14:51:59.344Z,0.85
2022-11-17T14:54:30.401Z,0.63
2022-11-17T14:57:00.360Z,0.52
2022-11-17T14:59:28.808Z,0.63
2022-11-17T15:02:01.354Z,0.88
2022-11-17T15:04:50.145Z,0.70
2022-11-17T15:07:18.521Z,1.05
2022-11-17T15:09:46.821Z,0.70
2022-11-17T15:12:18.799Z,0.55
2022-11-17T15:14:48.879Z,0.60
2022-11-17T15:17:17.948Z,0.63
2022-11-17T15:19:46.596Z,0.90
2022-11-17T15:22:15.658Z,0.82
2022-11-17T15:24:44.123Z,0.60
2022-11-17T15:27:12.344Z,0.85
2022-11-17T15:29:42.396Z,0.60
2022-11-17T15:32:12.955Z,0.80
2022-11-17T15:34:41.471Z,0.85
2022-11-17T15:37:10.002Z,0.88
2022-11-17T15:39:38.264Z,1.42
2022-11-17T15:42:09.236Z,1.05
2022-11-17T15:44:37.719Z,0.70
2022-11-17T15:47:07.329Z,0.73
2022-11-17T15:49:35.784Z,0.85
2022-11-17T15:52:04.175Z,0.70
2022-11-17T15:54:34.586Z,0.50
2022-11-17T15:57:05.647Z,0.80
2022-11-17T15:59:33.831Z,0.90
2022-11-17T16:02:11.847Z,0.90
2022-11-17T16:04:41.852Z,1.50
2022-11-17T16:07:10.107Z,0.95
2022-11-17T16:09:38.494Z,0.70
2022-11-17T16:12:07.128Z,0.68
2022-11-17T16:14:35.336Z,0.80
2022-11-17T16:17:06.095Z,0.75
2022-11-17T16:19:34.920Z,0.93
2022-11-17T16:22:04.689Z,0.88
2022-11-17T16:24:32.883Z,0.90
2022-11-17T16:27:01.650Z,0.90
2022-11-17T16:29:29.954Z,0.93
2022-11-17T16:32:03.157Z,1.42
2022-11-17T16:34:38.334Z,1.05
2022-11-17T16:37:12.400Z,1.00
2022-11-17T16:39:45.598Z,1.27
2022-11-17T16:42:14.284Z,1.20
2022-11-17T16:44:42.739Z,0.63
2022-11-17T16:47:11.126Z,0.63
2022-11-17T16:49:39.407Z,0.90
2022-11-17T16:52:09.108Z,1.13
2022-11-17T16:54:41.242Z,1.30
2022-11-17T16:57:10.297Z,0.77
2022-11-17T16:59:41.141Z,1.17
2022-11-17T17:02:11.810Z,0.88
2022-11-17T17:04:40.426Z,1.13
2022-11-17T17:07:10.619Z,1.05
2022-11-17T17:09:40.754Z,0.77
2022-11-17T17:12:12.947Z,1.08
2022-11-17T17:14:41.593Z,1.55
2022-11-17T17:17:17.784Z,1.17
2022-11-17T17:19:48.716Z,0.85
2022-11-17T17:22:18.432Z,1.05
2022-11-17T17:24:53.591Z,0.80
2022-11-17T17:27:24.711Z,1.35
2022-11-17T17:29:59.176Z,0.95
2022-11-17T17:32:27.618Z,0.88
2022-11-17T17:34:55.867Z,0.88
2022-11-17T17:37:25.714Z,0.88
2022-11-17T17:39:54.557Z,1.02
2022-11-17T17:42:22.801Z,0.80
2022-11-17T17:44:51.408Z,1.10
2022-11-17T17:47:19.827Z,1.58
2022-11-17T17:49:50.403Z,0.90
2022-11-17T17:52:18.921Z,0.77
2022-11-17T17:54:48.537Z,1.08
2022-11-17T17:57:16.998Z,1.05
2022-11-17T17:59:48.071Z,0.90
2022-11-17T18:02:16.596Z,0.60
2022-11-17T18:04:46.985Z,1.33
2022-11-17T18:07:15.672Z,0.90
2022-11-17T18:09:46.505Z,1.35
2022-11-17T18:12:23.234Z,1.63
2022-11-17T18:14:51.850Z,1.38
2022-11-17T18:17:20.211Z,1.08
2022-11-17T18:19:48.527Z,2.03
2022-11-17T18:22:24.714Z,3.13
2022-11-17T18:24:58.043Z,1.85
2022-11-17T18:27:30.586Z,0.80
2022-11-17T18:30:01.185Z,1.67
2022-11-17T18:32:31.936Z,1.10
2022-11-17T18:35:02.933Z,0.93
2022-11-17T18:37:31.702Z,1.10
2022-11-17T18:40:02.623Z,1.40
2022-11-17T18:42:37.860Z,1.13
2022-11-17T18:45:08.922Z,1.52
2022-11-17T18:47:37.201Z,1.67
2022-11-17T18:50:08.730Z,0.90
2022-11-17T18:52:39.966Z,1.10
2022-11-17T18:55:13.127Z,1.52
2022-11-17T18:57:45.024Z,1.88
2022-11-17T19:00:19.057Z,1.73
2022-11-17T19:02:47.742Z,1.20
2022-11-17T19:05:19.339Z,0.85
2022-11-17T19:07:48.213Z,0.98
2022-11-17T19:10:16.995Z,1.50
2022-11-17T19:12:46.811Z,1.30
2022-11-17T19:15:22.766Z,1.65
2022-11-17T19:17:51.238Z,1.48
2022-11-17T19:20:20.228Z,1.23
2022-11-17T19:22:56.450Z,1.27
2022-11-17T19:25:29.317Z,1.10
2022-11-17T19:28:01.639Z,1.20
2022-11-17T19:30:29.968Z,1.30
2022-11-17T19:32:58.598Z,1.08
2022-11-17T19:35:29.661Z,1.05
2022-11-17T19:37:58.322Z,1.33
2022-11-17T19:40:33.911Z,2.25
2022-11-17T19:43:08.135Z,1.38
2022-11-17T19:45:37.034Z,1.35
2022-11-17T19:48:05.535Z,1.20
2022-11-17T19:50:36.215Z,1.50
2022-11-17T19:53:05.089Z,1.00
2022-11-17T19:55:35.305Z,1.20
2022-11-17T19:58:10.063Z,0.95
2022-11-17T20:00:40.901Z,1.70
2022-11-17T20:03:09.496Z,1.40
2022-11-17T20:05:38.399Z,1.10
2022-11-17T20:08:12.053Z,1.13
2022-11-17T20:10:42.789Z,1.00
2022-11-17T20:13:12.690Z,1.88
2022-11-17T20:15:40.969Z,1.00
2022-11-17T20:18:11.039Z,1.10
2022-11-17T20:20:39.828Z,1.00
2022-11-17T20:23:08.546Z,1.70
2022-11-17T20:25:39.277Z,1.13
2022-11-17T20:28:08.453Z,1.10
2022-11-17T20:30:39.513Z,1.05
2022-11-17T20:33:10.284Z,1.20
2022-11-17T20:35:38.671Z,0.95
2022-11-17T20:38:07.910Z,1.33
2022-11-17T20:40:38.116Z,1.20
2022-11-17T20:43:06.625Z,1.08
2022-11-17T20:45:34.968Z,1.35
2022-11-17T20:48:04.873Z,1.13
2022-11-17T20:50:33.328Z,1.52
2022-11-17T20:53:01.872Z,0.95
2022-11-17T20:55:30.477Z,1.30
2022-11-17T20:57:59.115Z,1.20
2022-11-17T21:00:29.088Z,1.10
2022-11-17T21:02:58.707Z,0.82
2022-11-17T21:05:28.755Z,0.90
2022-11-17T21:07:57.063Z,1.60
2022-11-17T21:10:25.801Z,2.05
2022-11-17T21:12:54.181Z,1.20
2022-11-17T21:15:22.552Z,0.68
2022-11-17T21:18:08.939Z,0.77
2022-11-17T21:20:38.870Z,0.88
2022-11-17T21:23:07.168Z,0.93
2022-11-17T21:25:39.863Z,0.85
2022-11-17T21:28:08.317Z,1.48
2022-11-17T21:30:38.677Z,1.30
2022-11-17T21:33:06.907Z,1.10
2022-11-17T21:35:35.443Z,1.40
2022-11-17T21:38:05.328Z,1.00
2022-11-17T21:40:33.836Z,1.00
2022-11-17T21:43:02.348Z,1.42
2022-11-17T21:45:30.624Z,1.10
2022-11-17T21:47:59.710Z,1.30
2022-11-17T21:50:28.263Z,1.42
2022-11-17T21:52:56.683Z,1.67
2022-11-17T21:55:26.399Z,0.88
2022-11-17T21:57:54.980Z,1.33
2022-11-17T22:00:23.424Z,0.80
2022-11-17T22:02:51.729Z,1.55
2022-11-17T22:05:22.081Z,1.33
2022-11-17T22:07:50.432Z,1.20
2022-11-17T22:10:18.827Z,1.02
2022-11-17T22:12:48.721Z,1.30
2022-11-17T22:15:17.088Z,1.25
2022-11-17T22:17:45.674Z,1.45
2022-11-17T22:20:14.046Z,1.55
2022-11-17T22:22:42.351Z,1.17
2022-11-17T22:25:37.656Z,1.40
2022-11-17T22:28:00.704Z,1.15
2022-11-17T22:30:29.112Z,1.60
2022-11-17T22:32:57.422Z,1.30
2022-11-17T22:35:25.916Z,1.38
2022-11-17T22:37:54.356Z,1.40
2022-11-17T22:40:22.781Z,1.17
2022-11-17T22:42:53.754Z,1.50
2022-11-17T22:45:23.582Z,1.75
2022-11-17T22:47:51.889Z,1.30
2022-11-17T22:50:20.302Z,1.27
2022-11-17T22:52:48.916Z,1.23
2022-11-17T22:55:27.349Z,1.25
2022-11-17T22:57:55.742Z,1.08
2022-11-17T23:00:24.139Z,1.27
2022-11-17T23:02:52.622Z,1.30
2022-11-17T23:05:21.030Z,1.08
2022-11-17T23:07:49.408Z,1.67
2022-11-17T23:10:17.884Z,1.70
2022-11-17T23:12:47.744Z,1.23
2022-11-17T23:15:16.056Z,1.58
2022-11-17T23:17:44.434Z,1.63
2022-11-17T23:20:13.327Z,1.30
2022-11-17T23:22:41.648Z,1.73
2022-11-17T23:25:10.345Z,1.50
2022-11-17T23:27:38.693Z,1.80
2022-11-17T23:30:09.060Z,1.38
2022-11-17T23:32:37.495Z,1.33
2022-11-17T23:35:06.057Z,1.17
2022-11-17T23:37:34.363Z,1.00
2022-11-17T23:40:03.107Z,1.55
2022-11-17T23:42:32.645Z,1.20
2022-11-17T23:45:01.328Z,1.33
2022-11-17T23:47:31.074Z,1.50
2022-11-17T23:49:59.525Z,1.30
2022-11-17T23:52:27.819Z,1.20
2022-11-17T23:54:56.139Z,1.25
2022-11-17T23:57:24.478Z,1.10
2022-11-17T23:59:52.745Z,1.23
